Terminal Aerodrome Forecast
Issued by NWS

Home | Current Version | Previous Version | Text Only | Print | Product List | Glossary On
Versions: 1 2 3 4 5 6 7 8 9 10 11 12 13 14 15 16 17
349
FTAK31 PAJN 232325
TAFAJN
TAF
PAJN 232325Z 2400/2424 10008KT P6SM VCSH BKN050 OVC070
     FM240600 08005KT P6SM OVC050
     FM241500 10005KT P6SM VCSH SCT015 OVC040=

USA.gov is the U.S. government's official web portal to all federal, state and local government web resources and services.